England Ranch, South Dakota
Current Conditions -  °F | °C
As of 4:55 AM on Monday 20 Oct 2014 (Local Time) from KPHP Reporting Station
Clear Clear  
Wind Chill: 30°   Ceiling: Unl
Heat Index: 34°   Visibility: 10mi
Dew Point: 31°   Wind: 5mph
Humidity: 89%   Direction: 270°W
Pressure: 30.08"   Gusts: NA
Location:  44.3169°N, 101.368°W
Report Text: KPHP 201055Z AUTO 27004KT 10SM CLR 01/M01 A3008 RMK AO2 SLP183 T00111006 $
Loading
Personal Weather Stations






























Interactive Weather Map
Tropical Storm Tracking
New forecast layout! Learn more

10-Day Weather Forecast

Advertisements
Track Severe Weather on mobile